Time;durP1;ratioP1;P1;durP2;ratioP2;P2;SDS_P1;SDS_P2;PMS_P1;PMS_P2;Temp;Humidity;BMP_temperature;BMP_pressure;BME280_temperature;BME280_humidity;BME280_pressure;Samples;Min_cycle;Max_cycle;Signal;HPM_P1;HPM_P2
2022/11/13 00:01:24;;;;;;;32.65;18.30;;;;;;;;;;6285547;22;20087;-82
2022/11/13 00:03:51;;;;;;;30.38;18.73;;;;;;;;;;6258355;22;20000;-83
2022/11/13 00:06:17;;;;;;;50.15;21.73;;;;;;;;;;6284631;22;20421;-83
2022/11/13 00:08:44;;;;;;;45.60;20.58;;;;;;;;;;6285679;22;20055;-83
2022/11/13 00:11:14;;;;;;;37.33;18.95;;;;;;;;;;6285335;22;20068;-82
2022/11/13 00:13:41;;;;;;;31.33;18.83;;;;;;;;;;6284480;22;20007;-82
2022/11/13 00:16:10;;;;;;;34.88;21.33;;;;;;;;;;6284528;22;20050;-83
2022/11/13 00:18:37;;;;;;;45.40;21.02;;;;;;;;;;6283648;22;20003;-82
2022/11/13 00:21:22;;;;;;;34.75;21.95;;;;;;;;;;6283350;22;20408;-83
2022/11/13 00:23:48;;;;;;;38.13;20.88;;;;;;;;;;6255405;22;20007;-82
2022/11/13 00:26:16;;;;;;;36.28;21.00;;;;;;;;;;6291102;22;20002;-82
2022/11/13 00:28:42;;;;;;;38.50;21.85;;;;;;;;;;6259323;22;19999;-83
2022/11/13 00:31:09;;;;;;;35.33;21.13;;;;;;;;;;6284201;22;20011;-82
2022/11/13 00:33:35;;;;;;;47.47;22.58;;;;;;;;;;6282276;22;20038;-84
2022/11/13 00:36:06;;;;;;;34.38;22.08;;;;;;;;;;6256019;22;20007;-83
2022/11/13 00:38:32;;;;;;;54.35;23.83;;;;;;;;;;6256275;22;20011;-83
2022/11/13 00:40:58;;;;;;;36.35;20.75;;;;;;;;;;6256547;22;20439;-83
2022/11/13 00:43:24;;;;;;;37.30;23.23;;;;;;;;;;6282966;22;20023;-82
2022/11/13 00:45:50;;;;;;;37.22;22.20;;;;;;;;;;6282933;22;20491;-82
2022/11/13 00:48:17;;;;;;;41.40;24.42;;;;;;;;;;6284014;22;20010;-82
2022/11/13 00:50:43;;;;;;;43.10;23.45;;;;;;;;;;6255317;22;20003;-82
2022/11/13 00:53:09;;;;;;;38.85;21.83;;;;;;;;;;6282491;22;20000;-82
2022/11/13 00:55:35;;;;;;;37.83;22.50;;;;;;;;;;6255965;22;20478;-82
2022/11/13 00:58:01;;;;;;;36.33;22.13;;;;;;;;;;6283047;22;20007;-82
2022/11/13 01:00:27;;;;;;;33.60;20.05;;;;;;;;;;6283634;22;20055;-82
2022/11/13 01:02:53;;;;;;;34.25;20.95;;;;;;;;;;6282516;22;20003;-82
2022/11/13 01:05:19;;;;;;;41.00;22.02;;;;;;;;;;6256399;22;20328;-81
2022/11/13 01:07:45;;;;;;;38.58;21.92;;;;;;;;;;6256105;22;20046;-82
2022/11/13 01:10:12;;;;;;;32.75;21.38;;;;;;;;;;6282714;22;20436;-82
2022/11/13 01:12:38;;;;;;;46.00;22.80;;;;;;;;;;6283368;22;20008;-82
2022/11/13 01:15:04;;;;;;;37.97;21.88;;;;;;;;;;6283060;22;20004;-82
2022/11/13 01:17:30;;;;;;;40.78;21.25;;;;;;;;;;6281873;22;20004;-82
2022/11/13 01:19:57;;;;;;;40.45;23.17;;;;;;;;;;6254952;22;20004;-82
2022/11/13 01:22:23;;;;;;;41.42;22.05;;;;;;;;;;6283301;22;20000;-82
2022/11/13 01:24:49;;;;;;;42.80;23.52;;;;;;;;;;6282499;22;20180;-82
2022/11/13 01:27:16;;;;;;;38.15;23.20;;;;;;;;;;6283147;22;20003;-82
2022/11/13 01:29:42;;;;;;;38.45;23.23;;;;;;;;;;6281902;22;20026;-82
2022/11/13 01:32:08;;;;;;;49.38;24.25;;;;;;;;;;6282739;22;20004;-82
2022/11/13 01:34:34;;;;;;;50.08;23.88;;;;;;;;;;6282075;22;20087;-82
2022/11/13 01:37:00;;;;;;;46.03;24.15;;;;;;;;;;6283030;22;20004;-82
2022/11/13 01:39:26;;;;;;;45.35;24.30;;;;;;;;;;6254852;22;20008;-83
2022/11/13 01:41:52;;;;;;;65.60;26.65;;;;;;;;;;6256184;22;20455;-83
2022/11/13 01:44:19;;;;;;;61.03;26.08;;;;;;;;;;6282805;22;20034;-84
2022/11/13 01:46:46;;;;;;;67.93;28.17;;;;;;;;;;6282813;22;20022;-83
2022/11/13 01:49:24;;;;;;;54.60;27.10;;;;;;;;;;6256926;22;20030;-83
2022/11/13 01:52:01;;;;;;;69.53;27.00;;;;;;;;;;6283300;22;20079;-83
2022/11/13 01:54:29;;;;;;;67.43;28.40;;;;;;;;;;6283806;22;20007;-84
2022/11/13 01:56:56;;;;;;;62.30;29.85;;;;;;;;;;6284593;22;20061;-83
2022/11/13 01:59:24;;;;;;;76.28;31.02;;;;;;;;;;6257578;22;19999;-84
2022/11/13 02:01:50;;;;;;;68.63;29.33;;;;;;;;;;6285137;22;20008;-84
2022/11/13 02:04:16;;;;;;;69.60;30.30;;;;;;;;;;6285740;22;20004;-85
2022/11/13 02:06:45;;;;;;;74.60;29.65;;;;;;;;;;6259962;22;20007;-83
2022/11/13 02:09:12;;;;;;;75.93;32.00;;;;;;;;;;6282897;22;20000;-85
2022/11/13 02:11:38;;;;;;;64.38;29.50;;;;;;;;;;6284608;22;20015;-84
2022/11/13 02:14:05;;;;;;;71.60;29.83;;;;;;;;;;6287043;22;20033;-85
2022/11/13 02:16:32;;;;;;;80.93;31.63;;;;;;;;;;6260443;22;20438;-84
2022/11/13 02:18:58;;;;;;;73.68;31.10;;;;;;;;;;6260569;22;20004;-85
2022/11/13 02:21:37;;;;;;;73.47;30.40;;;;;;;;;;6292494;22;20007;-85
2022/11/13 02:24:21;;;;;;;79.53;30.30;;;;;;;;;;6268693;22;20014;-85
2022/11/13 02:26:49;;;;;;;72.05;30.55;;;;;;;;;;6264825;22;20015;-85
2022/11/13 02:29:15;;;;;;;68.13;30.15;;;;;;;;;;6289157;22;20069;-85
2022/11/13 02:31:41;;;;;;;58.75;29.58;;;;;;;;;;6289624;22;20052;-85
2022/11/13 02:34:07;;;;;;;66.35;29.50;;;;;;;;;;6260067;22;20068;-84
2022/11/13 02:36:33;;;;;;;59.17;28.70;;;;;;;;;;6289083;22;20022;-84
2022/11/13 02:39:01;;;;;;;53.33;29.60;;;;;;;;;;6289336;22;20011;-84
2022/11/13 02:41:27;;;;;;;50.58;27.52;;;;;;;;;;6287772;22;19999;-85
2022/11/13 02:43:53;;;;;;;48.78;27.73;;;;;;;;;;6288317;22;20058;-85
2022/11/13 02:46:19;;;;;;;50.72;28.10;;;;;;;;;;6288029;22;20003;-85
2022/11/13 02:48:45;;;;;;;52.17;28.00;;;;;;;;;;6262725;22;20000;-85
2022/11/13 02:51:12;;;;;;;46.97;25.40;;;;;;;;;;6289033;22;19999;-85
2022/11/13 02:53:39;;;;;;;58.03;26.10;;;;;;;;;;6289414;22;20201;-85
2022/11/13 02:56:05;;;;;;;49.22;27.38;;;;;;;;;;6258589;22;20004;-84
2022/11/13 02:58:32;;;;;;;46.15;26.48;;;;;;;;;;6291177;22;20004;-85
2022/11/13 03:01:00;;;;;;;49.38;26.63;;;;;;;;;;6291452;22;20004;-85
2022/11/13 03:03:27;;;;;;;48.58;27.15;;;;;;;;;;6263511;22;20000;-85
2022/11/13 03:05:53;;;;;;;54.28;25.65;;;;;;;;;;6263364;22;20375;-85
2022/11/13 03:08:19;;;;;;;51.80;26.45;;;;;;;;;;6288767;22;20374;-85
2022/11/13 03:10:46;;;;;;;43.88;24.17;;;;;;;;;;6290980;22;20003;-85
2022/11/13 03:13:12;;;;;;;41.92;25.00;;;;;;;;;;6292079;22;20065;-85
2022/11/13 03:15:39;;;;;;;68.20;27.65;;;;;;;;;;6262361;22;20004;-85
2022/11/13 03:18:07;;;;;;;58.10;28.33;;;;;;;;;;6270513;22;19992;-84
2022/11/13 03:20:35;;;;;;;55.15;27.85;;;;;;;;;;6304825;22;19999;-83
2022/11/13 03:23:02;;;;;;;65.28;29.38;;;;;;;;;;6290269;22;20000;-85
2022/11/13 03:25:28;;;;;;;65.45;29.85;;;;;;;;;;6281873;22;20026;-85
2022/11/13 03:27:54;;;;;;;66.38;29.98;;;;;;;;;;6279911;22;19996;-84
2022/11/13 03:30:20;;;;;;;67.82;32.10;;;;;;;;;;6281634;22;20024;-84
2022/11/13 03:32:46;;;;;;;61.88;32.13;;;;;;;;;;6253946;22;20042;-84
2022/11/13 03:35:12;;;;;;;81.28;32.25;;;;;;;;;;6281158;22;20000;-84
2022/11/13 03:37:38;;;;;;;56.05;29.52;;;;;;;;;;6255753;22;20032;-85
2022/11/13 03:40:05;;;;;;;73.80;32.40;;;;;;;;;;6255445;22;20400;-85
2022/11/13 03:42:31;;;;;;;67.00;32.58;;;;;;;;;;6256301;22;20069;-85
2022/11/13 03:44:57;;;;;;;60.90;30.83;;;;;;;;;;6280328;22;20397;-85
2022/11/13 03:47:23;;;;;;;72.10;31.40;;;;;;;;;;6279721;22;20332;-85
2022/11/13 03:49:49;;;;;;;63.65;29.95;;;;;;;;;;6282178;22;20000;-84
2022/11/13 03:52:15;;;;;;;75.28;31.00;;;;;;;;;;6254634;22;20010;-85
2022/11/13 03:54:41;;;;;;;62.22;29.95;;;;;;;;;;6257939;22;20008;-84
2022/11/13 03:57:07;;;;;;;67.15;31.08;;;;;;;;;;6275459;22;20395;-84
2022/11/13 03:59:33;;;;;;;59.80;29.50;;;;;;;;;;6301296;22;19988;-84
2022/11/13 04:01:59;;;;;;;72.70;30.13;;;;;;;;;;6274062;22;20002;-84
2022/11/13 04:04:25;;;;;;;75.43;29.63;;;;;;;;;;6274357;22;20031;-84
2022/11/13 04:06:51;;;;;;;72.72;30.45;;;;;;;;;;6273420;22;20008;-85
2022/11/13 04:09:17;;;;;;;60.40;29.10;;;;;;;;;;6260123;22;20007;-85
2022/11/13 04:11:43;;;;;;;73.38;30.88;;;;;;;;;;6262201;22;20129;-85
2022/11/13 04:14:09;;;;;;;70.03;30.88;;;;;;;;;;6288123;22;20000;-85
2022/11/13 04:16:35;;;;;;;83.60;30.33;;;;;;;;;;6261839;22;20014;-84
2022/11/13 04:19:01;;;;;;;79.85;31.83;;;;;;;;;;6269886;22;20031;-84
2022/11/13 04:21:27;;;;;;;61.03;29.45;;;;;;;;;;6290227;22;20004;-84
2022/11/13 04:23:53;;;;;;;68.35;29.92;;;;;;;;;;6261690;22;20082;-85
2022/11/13 04:26:21;;;;;;;67.63;30.42;;;;;;;;;;6261027;22;20436;-84
2022/11/13 04:28:49;;;;;;;69.07;32.03;;;;;;;;;;6258240;22;19995;-84
2022/11/13 04:31:16;;;;;;;106.80;35.47;;;;;;;;;;6261040;22;20383;-84
2022/11/13 04:33:43;;;;;;;71.70;32.03;;;;;;;;;;6276462;22;20004;-84
2022/11/13 04:36:09;;;;;;;78.65;33.55;;;;;;;;;;6302969;22;20055;-84
2022/11/13 04:38:35;;;;;;;62.72;31.15;;;;;;;;;;6303168;22;20041;-84
2022/11/13 04:43:45;;;;;;;108.55;35.17;;;;;;;;;;6282979;22;20095;-84
2022/11/13 04:46:12;;;;;;;66.75;33.22;;;;;;;;;;6284719;22;20003;-84
2022/11/13 04:48:39;;;;;;;74.95;33.42;;;;;;;;;;6285648;22;19995;-84
2022/11/13 04:51:06;;;;;;;79.00;36.50;;;;;;;;;;6284301;22;20051;-84
2022/11/13 04:53:33;;;;;;;79.88;33.50;;;;;;;;;;6283945;22;20049;-84
2022/11/13 04:55:59;;;;;;;71.97;34.05;;;;;;;;;;6256866;22;20071;-84
2022/11/13 04:58:25;;;;;;;75.68;35.13;;;;;;;;;;6255929;22;20038;-84
2022/11/13 05:00:51;;;;;;;79.38;32.63;;;;;;;;;;6255566;22;20007;-84
2022/11/13 05:03:17;;;;;;;95.18;37.53;;;;;;;;;;6256086;22;20004;-84
2022/11/13 05:05:43;;;;;;;93.93;35.85;;;;;;;;;;6256461;22;20379;-84
2022/11/13 05:08:09;;;;;;;78.28;35.55;;;;;;;;;;6282627;22;20391;-84
2022/11/13 05:10:35;;;;;;;67.88;32.90;;;;;;;;;;6257185;22;20008;-84
2022/11/13 05:13:01;;;;;;;101.47;37.08;;;;;;;;;;6282874;22;20304;-83
2022/11/13 05:15:27;;;;;;;68.43;33.05;;;;;;;;;;6255924;22;20000;-84
2022/11/13 05:17:53;;;;;;;74.03;35.38;;;;;;;;;;6255656;22;20382;-84
2022/11/13 05:20:19;;;;;;;101.60;37.38;;;;;;;;;;6257253;22;20054;-84
2022/11/13 05:22:45;;;;;;;71.95;34.47;;;;;;;;;;6283148;22;20024;-85
2022/11/13 05:25:11;;;;;;;99.63;36.97;;;;;;;;;;6257505;22;20011;-84
2022/11/13 05:27:37;;;;;;;77.72;34.88;;;;;;;;;;6284385;22;19996;-84
2022/11/13 05:30:03;;;;;;;72.03;35.47;;;;;;;;;;6255768;22;20034;-84
2022/11/13 05:32:29;;;;;;;96.63;36.97;;;;;;;;;;6256339;22;20007;-84
2022/11/13 05:34:55;;;;;;;73.68;32.58;;;;;;;;;;6256225;22;20004;-84
2022/11/13 05:37:21;;;;;;;86.55;36.80;;;;;;;;;;6282690;22;20000;-85
2022/11/13 05:39:47;;;;;;;79.00;34.38;;;;;;;;;;6282552;22;20010;-83
2022/11/13 05:42:13;;;;;;;76.15;36.80;;;;;;;;;;6256480;22;20339;-84
2022/11/13 05:44:39;;;;;;;108.18;39.13;;;;;;;;;;6282884;22;20061;-84
2022/11/13 05:47:05;;;;;;;97.65;38.83;;;;;;;;;;6256807;22;20011;-84
2022/11/13 05:49:31;;;;;;;74.05;34.85;;;;;;;;;;6283164;22;19992;-84
2022/11/13 05:51:57;;;;;;;83.32;36.75;;;;;;;;;;6255790;22;20007;-84
2022/11/13 05:54:23;;;;;;;88.30;38.95;;;;;;;;;;6256571;22;20000;-84
2022/11/13 05:56:50;;;;;;;85.78;37.85;;;;;;;;;;6282665;22;20023;-84
2022/11/13 05:59:16;;;;;;;91.20;40.65;;;;;;;;;;6282120;22;20025;-83
2022/11/13 06:01:42;;;;;;;97.78;36.75;;;;;;;;;;6282725;22;20003;-82
2022/11/13 06:04:09;;;;;;;90.75;38.83;;;;;;;;;;6283572;22;19992;-82
2022/11/13 06:06:35;;;;;;;84.78;39.88;;;;;;;;;;6283339;22;20011;-83
2022/11/13 06:09:03;;;;;;;100.60;40.05;;;;;;;;;;6283078;22;20336;-82
2022/11/13 06:11:30;;;;;;;91.07;40.55;;;;;;;;;;6292383;22;20011;-82
2022/11/13 06:13:56;;;;;;;95.40;41.70;;;;;;;;;;6289803;22;20014;-83
2022/11/13 06:16:24;;;;;;;95.20;43.72;;;;;;;;;;6284299;22;20031;-82
2022/11/13 06:18:50;;;;;;;97.55;41.95;;;;;;;;;;6255927;22;20015;-82
2022/11/13 06:21:18;;;;;;;100.38;42.65;;;;;;;;;;6283355;22;20000;-82
2022/11/13 06:23:44;;;;;;;98.43;41.78;;;;;;;;;;6282649;22;19992;-83
2022/11/13 06:26:11;;;;;;;97.57;43.22;;;;;;;;;;6283558;22;20004;-82
2022/11/13 06:28:38;;;;;;;95.10;39.78;;;;;;;;;;6255114;22;20078;-82
2022/11/13 06:31:08;;;;;;;103.60;41.22;;;;;;;;;;6283295;22;20011;-83
2022/11/13 06:33:34;;;;;;;102.53;43.15;;;;;;;;;;6281225;22;20011;-82
2022/11/13 06:36:01;;;;;;;98.40;39.13;;;;;;;;;;6257010;22;20061;-81
2022/11/13 06:38:30;;;;;;;92.78;36.72;;;;;;;;;;6283923;22;20033;-82
2022/11/13 06:40:56;;;;;;;99.05;40.97;;;;;;;;;;6296268;22;20007;-81
2022/11/13 06:43:22;;;;;;;93.85;40.00;;;;;;;;;;6272751;22;20077;-83
2022/11/13 06:45:48;;;;;;;105.65;38.50;;;;;;;;;;6286109;22;20012;-81
2022/11/13 06:48:14;;;;;;;94.20;39.33;;;;;;;;;;6260769;22;20168;-82
2022/11/13 06:50:40;;;;;;;101.35;38.47;;;;;;;;;;6285507;22;20007;-82
2022/11/13 06:53:06;;;;;;;99.07;40.55;;;;;;;;;;6285050;22;20022;-82
2022/11/13 06:55:32;;;;;;;94.72;38.30;;;;;;;;;;6284645;22;19995;-82
2022/11/13 06:57:58;;;;;;;99.47;39.88;;;;;;;;;;6256626;22;20078;-81
2022/11/13 07:00:24;;;;;;;94.95;37.25;;;;;;;;;;6255927;22;20012;-82
2022/11/13 07:02:50;;;;;;;88.82;37.92;;;;;;;;;;6283518;22;20055;-81
2022/11/13 07:05:17;;;;;;;93.07;37.72;;;;;;;;;;6283901;22;20000;-81
2022/11/13 07:07:43;;;;;;;105.53;37.92;;;;;;;;;;6256295;22;20011;-82
2022/11/13 07:10:09;;;;;;;99.18;41.08;;;;;;;;;;6257513;22;20026;-82
2022/11/13 07:12:35;;;;;;;115.18;41.95;;;;;;;;;;6284444;22;20012;-81
2022/11/13 07:15:01;;;;;;;106.95;42.28;;;;;;;;;;6283367;22;20070;-81
2022/11/13 07:17:30;;;;;;;107.22;40.05;;;;;;;;;;6282769;22;20000;-82
2022/11/13 07:19:56;;;;;;;99.32;37.83;;;;;;;;;;6283287;22;20416;-82
2022/11/13 07:22:22;;;;;;;99.28;42.30;;;;;;;;;;6283163;22;19995;-82
2022/11/13 07:24:48;;;;;;;101.53;41.40;;;;;;;;;;6257285;22;20413;-82
2022/11/13 07:27:14;;;;;;;96.47;40.05;;;;;;;;;;6256823;22;20026;-81
2022/11/13 07:29:41;;;;;;;97.50;37.78;;;;;;;;;;6282948;22;20114;-81
2022/11/13 07:32:07;;;;;;;105.85;39.25;;;;;;;;;;6284507;22;19996;-81
2022/11/13 07:34:33;;;;;;;90.75;37.25;;;;;;;;;;6257538;22;20000;-81
2022/11/13 07:36:59;;;;;;;98.28;40.22;;;;;;;;;;6284712;22;20003;-82
2022/11/13 07:39:25;;;;;;;93.57;37.33;;;;;;;;;;6285089;22;20006;-81
2022/11/13 07:41:51;;;;;;;87.25;34.38;;;;;;;;;;6256707;22;20007;-83
2022/11/13 07:44:17;;;;;;;94.20;35.95;;;;;;;;;;6259221;22;20038;-82
2022/11/13 07:46:43;;;;;;;86.90;34.53;;;;;;;;;;6287196;22;20000;-82
2022/11/13 07:49:09;;;;;;;91.22;33.55;;;;;;;;;;6260242;22;20205;-82
2022/11/13 07:51:35;;;;;;;87.20;34.10;;;;;;;;;;6287978;22;20000;-81
2022/11/13 07:54:01;;;;;;;91.63;34.80;;;;;;;;;;6287746;22;20004;-81
2022/11/13 07:56:27;;;;;;;84.32;35.58;;;;;;;;;;6288540;22;19999;-81
2022/11/13 07:58:53;;;;;;;83.15;32.67;;;;;;;;;;6289580;22;20087;-80
2022/11/13 08:01:19;;;;;;;91.43;35.95;;;;;;;;;;6263041;22;20007;-80
2022/11/13 08:03:45;;;;;;;96.60;34.45;;;;;;;;;;6296739;22;19980;-80
2022/11/13 08:06:11;;;;;;;82.85;32.88;;;;;;;;;;6290449;22;20011;-81
2022/11/13 08:08:37;;;;;;;85.32;32.05;;;;;;;;;;6260986;22;20011;-80
2022/11/13 08:11:07;;;;;;;84.65;32.63;;;;;;;;;;6288520;22;20051;-80
2022/11/13 08:13:36;;;;;;;81.80;33.38;;;;;;;;;;6263254;22;20003;-81
2022/11/13 08:16:03;;;;;;;88.88;33.70;;;;;;;;;;6263132;22;20007;-80
2022/11/13 08:18:29;;;;;;;93.97;32.50;;;;;;;;;;6290899;22;20068;-81
2022/11/13 08:20:56;;;;;;;97.47;35.00;;;;;;;;;;6290477;22;20011;-81
2022/11/13 08:23:22;;;;;;;89.88;34.28;;;;;;;;;;6287184;22;19992;-82
2022/11/13 08:25:48;;;;;;;87.55;36.03;;;;;;;;;;6289599;22;19996;-81
2022/11/13 08:28:14;;;;;;;87.43;34.28;;;;;;;;;;6263748;22;20004;-81
2022/11/13 08:30:42;;;;;;;85.65;33.72;;;;;;;;;;6295833;22;20008;-82
2022/11/13 08:33:08;;;;;;;97.57;34.83;;;;;;;;;;6293824;22;20004;-82
2022/11/13 08:35:34;;;;;;;100.00;37.20;;;;;;;;;;6293464;22;20053;-81
2022/11/13 08:38:01;;;;;;;86.85;35.75;;;;;;;;;;6290965;22;20323;-82
2022/11/13 08:40:27;;;;;;;92.65;37.35;;;;;;;;;;6256668;22;20435;-81
2022/11/13 08:42:58;;;;;;;97.35;36.22;;;;;;;;;;6283344;22;20066;-81
2022/11/13 08:45:24;;;;;;;95.70;33.55;;;;;;;;;;6282687;22;20076;-82
2022/11/13 08:47:50;;;;;;;101.30;36.72;;;;;;;;;;6256348;22;20004;-81
2022/11/13 08:50:16;;;;;;;93.70;38.08;;;;;;;;;;6282399;22;20031;-82
2022/11/13 08:52:42;;;;;;;96.22;38.47;;;;;;;;;;6282118;22;20027;-81
2022/11/13 08:55:08;;;;;;;92.25;36.10;;;;;;;;;;6281641;22;20439;-81
2022/11/13 08:57:34;;;;;;;97.07;38.38;;;;;;;;;;6282195;22;20024;-83
2022/11/13 09:00:02;;;;;;;89.93;38.15;;;;;;;;;;6281763;22;20189;-80
2022/11/13 09:02:28;;;;;;;94.15;36.50;;;;;;;;;;6254139;22;20007;-82
2022/11/13 09:04:54;;;;;;;94.60;37.65;;;;;;;;;;6252914;22;20000;-82
2022/11/13 09:07:20;;;;;;;85.28;38.15;;;;;;;;;;6280863;22;20006;-83
2022/11/13 09:09:46;;;;;;;109.47;40.00;;;;;;;;;;6253951;22;20026;-82
2022/11/13 09:12:12;;;;;;;107.25;41.15;;;;;;;;;;6256078;22;20011;-80
2022/11/13 09:14:38;;;;;;;102.53;39.13;;;;;;;;;;6283047;22;19996;-82
2022/11/13 09:17:04;;;;;;;96.50;38.95;;;;;;;;;;6255503;22;20012;-82
2022/11/13 09:19:30;;;;;;;98.55;42.22;;;;;;;;;;6284695;22;20053;-81
2022/11/13 09:21:56;;;;;;;99.78;38.95;;;;;;;;;;6282590;22;20440;-81
2022/11/13 09:24:22;;;;;;;109.22;40.97;;;;;;;;;;6254258;22;20003;-81
2022/11/13 09:26:48;;;;;;;106.65;42.30;;;;;;;;;;6279898;22;19995;-83
2022/11/13 09:29:14;;;;;;;102.55;42.88;;;;;;;;;;6282830;22;20008;-82
2022/11/13 09:31:40;;;;;;;97.32;39.85;;;;;;;;;;6280936;22;20396;-82
2022/11/13 09:34:07;;;;;;;97.80;39.35;;;;;;;;;;6281733;22;20003;-81
2022/11/13 09:36:33;;;;;;;100.82;39.97;;;;;;;;;;6255969;22;20010;-81
2022/11/13 09:38:59;;;;;;;94.70;40.65;;;;;;;;;;6281221;22;20007;-82
2022/11/13 09:41:27;;;;;;;100.55;40.97;;;;;;;;;;6281902;22;20004;-80
2022/11/13 09:43:54;;;;;;;98.38;38.78;;;;;;;;;;6280505;22;20045;-82
2022/11/13 09:46:33;;;;;;;107.95;39.83;;;;;;;;;;6255616;22;20003;-81
2022/11/13 09:49:02;;;;;;;102.63;39.00;;;;;;;;;;6281788;22;19995;-83
2022/11/13 09:51:30;;;;;;;96.45;42.70;;;;;;;;;;6256301;22;20004;-82
2022/11/13 09:53:57;;;;;;;97.65;38.72;;;;;;;;;;6255325;22;20003;-82
2022/11/13 09:56:28;;;;;;;96.68;38.72;;;;;;;;;;6288345;22;19999;-82
2022/11/13 09:59:00;;;;;;;103.07;40.65;;;;;;;;;;6297423;22;20014;-80
2022/11/13 10:01:46;;;;;;;94.63;39.05;;;;;;;;;;6272858;22;20098;-80
2022/11/13 10:04:14;;;;;;;99.22;36.40;;;;;;;;;;6284234;22;20379;-82
2022/11/13 10:06:49;;;;;;;108.20;39.42;;;;;;;;;;6255420;22;20008;-83
2022/11/13 10:09:21;;;;;;;94.72;38.53;;;;;;;;;;6256003;22;20004;-83
2022/11/13 10:11:50;;;;;;;105.95;40.15;;;;;;;;;;6255272;22;20074;-84
2022/11/13 10:14:17;;;;;;;93.03;36.35;;;;;;;;;;6255997;22;20000;-82
2022/11/13 10:16:55;;;;;;;106.15;42.80;;;;;;;;;;6280621;22;19996;-83
2022/11/13 10:19:21;;;;;;;93.78;38.40;;;;;;;;;;6280900;22;20004;-80
2022/11/13 10:21:57;;;;;;;96.72;39.55;;;;;;;;;;6250460;22;20081;-82
2022/11/13 10:24:39;;;;;;;90.32;37.08;;;;;;;;;;6287183;22;20018;-81
2022/11/13 10:27:08;;;;;;;99.53;39.20;;;;;;;;;;6257988;22;20011;-83
2022/11/13 10:29:35;;;;;;;101.30;40.17;;;;;;;;;;6286308;22;20145;-83
2022/11/13 10:32:14;;;;;;;104.65;41.58;;;;;;;;;;6256845;22;20004;-82
2022/11/13 10:34:41;;;;;;;92.57;38.70;;;;;;;;;;6257264;22;20432;-83
2022/11/13 10:37:26;;;;;;;103.35;40.33;;;;;;;;;;6283973;22;20403;-82
2022/11/13 10:39:52;;;;;;;88.60;38.92;;;;;;;;;;6258464;22;20000;-84
2022/11/13 10:42:21;;;;;;;96.00;37.17;;;;;;;;;;6284471;22;20003;-84
2022/11/13 10:44:54;;;;;;;86.63;36.90;;;;;;;;;;6297727;22;20024;-83
2022/11/13 10:47:22;;;;;;;86.80;35.75;;;;;;;;;;6299822;22;20002;-85
2022/11/13 10:49:48;;;;;;;85.93;37.30;;;;;;;;;;6270443;22;19992;-82
2022/11/13 10:52:19;;;;;;;87.05;35.95;;;;;;;;;;6270696;22;19988;-84
2022/11/13 10:54:45;;;;;;;74.63;34.13;;;;;;;;;;6294610;22;20034;-86
2022/11/13 10:57:29;;;;;;;72.55;31.92;;;;;;;;;;6257361;22;20007;-87
2022/11/13 10:59:55;;;;;;;65.60;31.15;;;;;;;;;;6254805;22;20317;-82
2022/11/13 11:02:25;;;;;;;51.80;28.08;;;;;;;;;;6280632;22;20000;-85
2022/11/13 11:05:15;;;;;;;51.55;26.40;;;;;;;;;;6280467;22;20061;-86
2022/11/13 11:07:41;;;;;;;44.08;25.40;;;;;;;;;;6253785;22;19996;-85
2022/11/13 11:10:22;;;;;;;42.35;22.38;;;;;;;;;;6278857;22;19996;-86
2022/11/13 11:12:52;;;;;;;43.80;23.95;;;;;;;;;;6277837;22;19999;-85
2022/11/13 11:15:21;;;;;;;39.92;21.30;;;;;;;;;;6252532;22;20003;-85
2022/11/13 11:17:52;;;;;;;37.00;20.98;;;;;;;;;;6281101;22;20059;-84
2022/11/13 11:20:19;;;;;;;41.80;21.38;;;;;;;;;;6295120;22;20031;-84
2022/11/13 11:22:45;;;;;;;36.47;20.48;;;;;;;;;;6297148;22;20015;-83
2022/11/13 11:25:41;;;;;;;39.35;21.52;;;;;;;;;;6265572;22;20026;-84
2022/11/13 11:28:07;;;;;;;35.88;21.63;;;;;;;;;;6130783;23;20462;-85
2022/11/13 11:30:36;;;;;;;33.13;20.45;;;;;;;;;;6101511;23;20093;-85
2022/11/13 11:33:15;;;;;;;32.95;20.00;;;;;;;;;;6127625;23;20006;-85
2022/11/13 11:35:45;;;;;;;30.88;17.75;;;;;;;;;;6126746;23;20352;-85
2022/11/13 11:38:19;;;;;;;28.70;17.85;;;;;;;;;;6126676;23;20021;-84
2022/11/13 11:40:49;;;;;;;29.42;17.67;;;;;;;;;;6126115;23;20479;-82
2022/11/13 11:43:34;;;;;;;28.08;17.48;;;;;;;;;;6124732;23;20040;-83
2022/11/13 11:46:00;;;;;;;24.20;16.15;;;;;;;;;;6126042;23;20010;-84
2022/11/13 11:48:27;;;;;;;27.42;16.75;;;;;;;;;;6125302;23;20025;-82
2022/11/13 11:50:57;;;;;;;27.55;16.88;;;;;;;;;;6126422;23;20017;-83
2022/11/13 11:53:44;;;;;;;28.55;17.33;;;;;;;;;;6126344;23;20013;-83
2022/11/13 11:56:39;;;;;;;24.73;16.52;;;;;;;;;;6124699;23;20073;-83
2022/11/13 11:59:13;;;;;;;25.02;16.20;;;;;;;;;;6113540;23;20009;-83
2022/11/13 12:01:39;;;;;;;26.33;15.98;;;;;;;;;;6124715;23;20017;-82
2022/11/13 12:04:11;;;;;;;24.83;14.98;;;;;;;;;;6150641;22;20000;-82
2022/11/13 12:06:56;;;;;;;22.13;13.95;;;;;;;;;;6278900;22;20007;-82
2022/11/13 12:09:25;;;;;;;24.48;14.85;;;;;;;;;;6279217;22;20054;-83
2022/11/13 12:12:05;;;;;;;22.73;15.65;;;;;;;;;;6279523;22;20166;-80
2022/11/13 12:14:41;;;;;;;25.08;15.18;;;;;;;;;;6278167;22;20004;-83
2022/11/13 12:17:10;;;;;;;22.67;14.50;;;;;;;;;;6279574;22;20004;-81
2022/11/13 12:20:06;;;;;;;24.75;14.43;;;;;;;;;;6250664;22;20058;-81
2022/11/13 12:22:47;;;;;;;23.63;14.45;;;;;;;;;;6221066;22;20155;-82
2022/11/13 12:25:43;;;;;;;23.25;15.02;;;;;;;;;;6278800;22;20060;-82
2022/11/13 12:28:21;;;;;;;23.42;14.30;;;;;;;;;;6245640;22;19999;-82
2022/11/13 12:30:53;;;;;;;25.50;15.60;;;;;;;;;;6278779;22;20004;-83
2022/11/13 12:33:22;;;;;;;22.33;13.75;;;;;;;;;;6280795;22;20004;-81
2022/11/13 12:35:50;;;;;;;25.10;14.77;;;;;;;;;;6280668;22;20004;-81
2022/11/13 12:38:16;;;;;;;26.85;16.13;;;;;;;;;;6279890;22;20004;-82
2022/11/13 12:40:55;;;;;;;23.13;14.85;;;;;;;;;;6280837;22;20014;-82
2022/11/13 12:43:37;;;;;;;26.10;15.90;;;;;;;;;;6281098;22;19995;-80
2022/11/13 12:46:10;;;;;;;24.88;14.82;;;;;;;;;;6279008;22;20004;-81
2022/11/13 12:48:41;;;;;;;29.67;16.10;;;;;;;;;;6280846;22;19996;-82
2022/11/13 12:51:09;;;;;;;28.92;16.50;;;;;;;;;;6280388;22;20004;-81
2022/11/13 12:54:08;;;;;;;24.48;15.07;;;;;;;;;;6252224;22;20031;-83
2022/11/13 12:56:34;;;;;;;24.63;15.27;;;;;;;;;;6102852;23;20017;-81
2022/11/13 12:59:11;;;;;;;28.00;17.88;;;;;;;;;;6126381;23;20002;-81
2022/11/13 13:01:43;;;;;;;29.30;16.08;;;;;;;;;;6125083;23;20438;-80
2022/11/13 13:04:27;;;;;;;29.23;16.95;;;;;;;;;;6126732;23;20006;-81
2022/11/13 13:07:12;;;;;;;27.25;16.33;;;;;;;;;;6125630;23;20065;-81
2022/11/13 13:09:59;;;;;;;33.75;17.75;;;;;;;;;;6101588;23;20009;-81
2022/11/13 13:12:37;;;;;;;29.60;16.45;;;;;;;;;;6125442;23;20021;-80
2022/11/13 13:15:22;;;;;;;27.55;16.58;;;;;;;;;;6126425;23;20076;-81
2022/11/13 13:17:48;;;;;;;30.63;17.00;;;;;;;;;;6127281;23;20006;-79
2022/11/13 13:20:14;;;;;;;31.25;18.02;;;;;;;;;;6114325;23;20009;-80
2022/11/13 13:22:40;;;;;;;29.05;16.63;;;;;;;;;;6113269;23;20028;-80
2022/11/13 13:25:22;;;;;;;29.77;17.77;;;;;;;;;;6127606;23;19998;-81
2022/11/13 13:28:01;;;;;;;34.17;18.92;;;;;;;;;;6126541;23;20002;-80
2022/11/13 13:30:30;;;;;;;28.52;16.70;;;;;;;;;;6100880;23;20219;-83
2022/11/13 13:33:05;;;;;;;31.73;18.73;;;;;;;;;;6252776;22;20436;-81
2022/11/13 13:35:31;;;;;;;34.03;18.15;;;;;;;;;;6278413;22;20000;-81
2022/11/13 13:38:02;;;;;;;37.15;19.05;;;;;;;;;;6278536;22;20010;-82
2022/11/13 13:40:34;;;;;;;33.35;18.27;;;;;;;;;;6277926;22;20327;-82
2022/11/13 13:43:06;;;;;;;34.88;19.38;;;;;;;;;;6282670;22;20002;-81
2022/11/13 13:45:32;;;;;;;31.58;19.08;;;;;;;;;;6279978;22;20065;-82
2022/11/13 13:48:00;;;;;;;30.80;17.75;;;;;;;;;;6277510;22;20370;-81
2022/11/13 13:50:31;;;;;;;31.33;18.35;;;;;;;;;;6277888;22;20004;-80
2022/11/13 13:52:58;;;;;;;33.40;20.58;;;;;;;;;;6251027;22;20008;-81
2022/11/13 13:55:28;;;;;;;31.20;19.42;;;;;;;;;;6251612;22;20008;-82
2022/11/13 13:57:54;;;;;;;35.88;20.55;;;;;;;;;;6278199;22;20396;-82
2022/11/13 14:00:20;;;;;;;36.05;20.17;;;;;;;;;;6278778;22;20004;-83
2022/11/13 14:02:51;;;;;;;37.13;22.25;;;;;;;;;;6278209;22;19996;-82
2022/11/13 14:05:30;;;;;;;40.42;20.50;;;;;;;;;;6249864;22;20387;-81
2022/11/13 14:07:58;;;;;;;39.20;20.38;;;;;;;;;;6278990;22;20074;-82
2022/11/13 14:10:26;;;;;;;38.88;21.67;;;;;;;;;;6278029;22;20000;-82
2022/11/13 14:12:53;;;;;;;39.05;21.45;;;;;;;;;;6250940;22;20008;-79
2022/11/13 14:15:29;;;;;;;38.38;22.30;;;;;;;;;;6278352;22;20503;-81
2022/11/13 14:18:05;;;;;;;35.40;21.27;;;;;;;;;;6278754;22;20006;-79
2022/11/13 14:20:57;;;;;;;36.08;21.05;;;;;;;;;;6278781;22;20007;-82
2022/11/13 14:23:26;;;;;;;40.13;21.35;;;;;;;;;;6275611;22;19999;-81
2022/11/13 14:25:53;;;;;;;38.67;20.90;;;;;;;;;;6282579;22;20038;-82
2022/11/13 14:28:27;;;;;;;39.55;21.83;;;;;;;;;;6257507;22;20010;-81